Time;durP1;ratioP1;P1;durP2;ratioP2;P2;SDS_P1;SDS_P2;PMS_P1;PMS_P2;Temp;Humidity;BMP_temperature;BMP_pressure;BME280_temperature;BME280_humidity;BME280_pressure;Samples;Min_cycle;Max_cycle;Signal;HPM_P1;HPM_P2
2023/08/30 00:07:59;;;;;;;1.50;0.63;;;;;;;;;;20999244;28;20398;-62
2023/08/30 00:18:00;;;;;;;1.52;0.90;;;;;;;;;;20997544;28;20051;-62
2023/08/30 00:28:02;;;;;;;1.27;0.63;;;;;;;;;;20998039;28;20044;-62
2023/08/30 00:38:03;;;;;;;2.13;1.00;;;;;;;;;;20995970;28;20041;-61
2023/08/30 00:48:04;;;;;;;1.80;0.90;;;;;;;;;;20996032;28;20111;-62
2023/08/30 00:58:05;;;;;;;2.08;0.82;;;;;;;;;;20997684;28;20048;-61
2023/08/30 01:08:07;;;;;;;2.70;1.08;;;;;;;;;;20995281;28;20162;-62
2023/08/30 01:18:09;;;;;;;2.25;1.27;;;;;;;;;;20994856;28;20056;-62
2023/08/30 01:28:11;;;;;;;3.95;1.27;;;;;;;;;;20994273;28;20055;-61
2023/08/30 01:38:12;;;;;;;2.65;1.08;;;;;;;;;;20995310;28;20048;-62
2023/08/30 01:48:16;;;;;;;2.20;1.30;;;;;;;;;;21001599;28;20048;-61
2023/08/30 01:58:17;;;;;;;2.70;1.40;;;;;;;;;;21008445;28;20048;-62
2023/08/30 02:08:19;;;;;;;2.75;1.40;;;;;;;;;;21007360;28;20037;-62
2023/08/30 02:18:20;;;;;;;2.88;1.55;;;;;;;;;;21008175;28;20079;-62
2023/08/30 02:28:22;;;;;;;3.10;1.50;;;;;;;;;;21007485;28;20124;-61
2023/08/30 02:38:23;;;;;;;2.25;1.48;;;;;;;;;;21006981;28;20098;-63
2023/08/30 02:48:24;;;;;;;4.63;1.42;;;;;;;;;;21005910;28;20044;-61
2023/08/30 02:58:25;;;;;;;4.68;1.27;;;;;;;;;;21003611;28;20083;-61
2023/08/30 03:08:26;;;;;;;3.05;1.60;;;;;;;;;;21004544;28;20405;-62
2023/08/30 03:18:27;;;;;;;3.25;1.17;;;;;;;;;;21002419;28;20078;-62
2023/08/30 03:28:28;;;;;;;4.35;1.63;;;;;;;;;;21001444;28;20044;-61
2023/08/30 03:38:29;;;;;;;2.97;1.25;;;;;;;;;;21001615;28;20053;-61
2023/08/30 03:48:31;;;;;;;2.70;1.10;;;;;;;;;;21000753;28;20090;-62
2023/08/30 03:58:33;;;;;;;4.22;1.50;;;;;;;;;;20998826;28;20052;-61
2023/08/30 04:08:34;;;;;;;3.20;1.58;;;;;;;;;;20998760;28;20070;-61
2023/08/30 04:18:35;;;;;;;3.42;1.33;;;;;;;;;;20998981;28;20524;-62
2023/08/30 04:28:36;;;;;;;5.10;1.58;;;;;;;;;;20998202;28;20071;-62
2023/08/30 04:38:37;;;;;;;2.88;1.52;;;;;;;;;;20997621;28;20094;-63
2023/08/30 04:48:38;;;;;;;2.80;1.60;;;;;;;;;;20997021;28;20044;-61
2023/08/30 04:58:39;;;;;;;2.63;1.30;;;;;;;;;;20995344;28;20075;-62
2023/08/30 05:08:40;;;;;;;3.13;1.63;;;;;;;;;;20995096;28;20048;-61
2023/08/30 05:18:42;;;;;;;2.78;1.70;;;;;;;;;;20995725;28;20057;-61
2023/08/30 05:28:43;;;;;;;3.60;1.50;;;;;;;;;;21010244;28;20047;-62
2023/08/30 05:38:44;;;;;;;3.83;1.67;;;;;;;;;;21010792;28;20405;-61
2023/08/30 05:48:45;;;;;;;5.38;1.85;;;;;;;;;;21008670;28;20070;-61
2023/08/30 05:58:46;;;;;;;3.10;1.42;;;;;;;;;;21010979;28;20091;-62
2023/08/30 06:08:48;;;;;;;3.30;1.75;;;;;;;;;;21008637;28;20087;-62
2023/08/30 06:18:49;;;;;;;8.45;2.00;;;;;;;;;;21008094;28;20078;-61
2023/08/30 06:28:51;;;;;;;5.95;1.63;;;;;;;;;;21006095;28;20040;-61
2023/08/30 06:38:53;;;;;;;9.30;2.15;;;;;;;;;;21005914;28;20076;-61
2023/08/30 06:48:54;;;;;;;2.28;1.33;;;;;;;;;;21006101;28;20049;-62
2023/08/30 06:58:55;;;;;;;3.45;1.60;;;;;;;;;;21003825;28;20467;-62
2023/08/30 07:08:56;;;;;;;3.35;1.30;;;;;;;;;;21002659;28;20040;-61
2023/08/30 07:18:57;;;;;;;3.63;1.48;;;;;;;;;;21003411;28;20177;-61
2023/08/30 07:28:58;;;;;;;4.63;1.40;;;;;;;;;;21002575;28;20037;-61
2023/08/30 07:38:59;;;;;;;3.20;1.90;;;;;;;;;;21001869;28;20040;-61
2023/08/30 07:49:01;;;;;;;4.78;1.48;;;;;;;;;;20999475;28;20044;-62
2023/08/30 07:59:02;;;;;;;5.00;1.65;;;;;;;;;;21000123;28;20051;-62
2023/08/30 08:09:03;;;;;;;4.57;1.10;;;;;;;;;;20999570;28;20048;-62
2023/08/30 08:19:05;;;;;;;12.82;1.40;;;;;;;;;;20999334;28;20558;-62
2023/08/30 08:29:07;;;;;;;5.45;1.10;;;;;;;;;;20998382;28;20535;-61
2023/08/30 08:39:11;;;;;;;2.08;0.90;;;;;;;;;;20997869;28;20059;-63
2023/08/30 08:49:13;;;;;;;3.00;1.02;;;;;;;;;;20996004;28;20040;-63
2023/08/30 08:59:14;;;;;;;3.92;0.90;;;;;;;;;;20996656;28;20040;-62
2023/08/30 09:09:16;;;;;;;1.70;1.00;;;;;;;;;;20996782;28;20041;-62
2023/08/30 09:19:20;;;;;;;1.48;0.80;;;;;;;;;;20996223;28;20040;-62
2023/08/30 09:29:25;;;;;;;5.18;0.93;;;;;;;;;;20994750;28;20098;-62
2023/08/30 09:39:26;;;;;;;6.85;2.20;;;;;;;;;;20995408;28;20464;-61
2023/08/30 09:49:27;;;;;;;1.98;1.00;;;;;;;;;;20994501;28;20506;-62
2023/08/30 09:59:28;;;;;;;1.90;0.80;;;;;;;;;;20994499;28;20044;-62
2023/08/30 10:09:30;;;;;;;5.28;1.13;;;;;;;;;;20999950;28;20041;-62
2023/08/30 10:19:32;;;;;;;2.58;0.60;;;;;;;;;;21008593;28;20049;-62
2023/08/30 10:29:37;;;;;;;2.17;0.68;;;;;;;;;;21007529;28;20046;-61
2023/08/30 10:39:39;;;;;;;2.67;0.60;;;;;;;;;;21006935;28;20493;-63
2023/08/30 10:49:43;;;;;;;2.65;0.70;;;;;;;;;;21005887;28;20068;-63
2023/08/30 11:00:03;;;;;;;2.70;0.63;;;;;;;;;;21005350;28;20135;-61
2023/08/30 11:10:06;;;;;;;1.95;0.70;;;;;;;;;;21003847;28;20131;-61
2023/08/30 11:20:09;;;;;;;1.85;0.60;;;;;;;;;;21003522;28;20049;-62
2023/08/30 11:30:11;;;;;;;1.27;0.60;;;;;;;;;;21001664;28;20401;-61
2023/08/30 11:40:12;;;;;;;1.92;0.70;;;;;;;;;;21001029;28;20037;-62
2023/08/30 11:50:13;;;;;;;1.30;0.45;;;;;;;;;;21000206;28;20048;-62
2023/08/30 12:00:15;;;;;;;0.90;0.57;;;;;;;;;;21000273;28;20048;-62
2023/08/30 12:10:19;;;;;;;3.83;0.75;;;;;;;;;;20999325;28;20124;-62
2023/08/30 12:20:22;;;;;;;1.83;0.70;;;;;;;;;;20998893;28;20049;-62
2023/08/30 12:30:24;;;;;;;2.80;0.90;;;;;;;;;;20996030;28;20127;-62
2023/08/30 12:40:25;;;;;;;2.80;1.10;;;;;;;;;;20997820;28;20493;-62
2023/08/30 12:50:26;;;;;;;2.60;1.15;;;;;;;;;;20995534;28;20159;-61
2023/08/30 13:00:27;;;;;;;1.85;0.93;;;;;;;;;;20995562;28;20059;-62
2023/08/30 13:10:28;;;;;;;2.50;1.17;;;;;;;;;;20996416;28;20559;-62
2023/08/30 13:20:30;;;;;;;1.92;0.98;;;;;;;;;;20995004;28;20132;-62
2023/08/30 13:30:31;;;;;;;1.45;0.75;;;;;;;;;;20996041;28;20097;-62
2023/08/30 13:40:32;;;;;;;2.72;1.00;;;;;;;;;;20997992;28;20053;-61
2023/08/30 13:50:33;;;;;;;3.15;1.00;;;;;;;;;;21010559;28;20056;-62
2023/08/30 14:00:34;;;;;;;4.03;1.05;;;;;;;;;;21008326;28;20110;-63
2023/08/30 14:10:35;;;;;;;2.88;1.58;;;;;;;;;;21009188;28;20079;-63
2023/08/30 14:20:36;;;;;;;1.55;1.17;;;;;;;;;;21008532;28;20056;-62
2023/08/30 14:30:37;;;;;;;7.80;4.03;;;;;;;;;;21006448;28;20037;-62
2023/08/30 14:40:39;;;;;;;3.05;1.50;;;;;;;;;;21005582;28;20049;-62
2023/08/30 14:50:40;;;;;;;3.65;2.10;;;;;;;;;;21005086;28;20057;-62
2023/08/30 15:00:41;;;;;;;1.95;1.40;;;;;;;;;;21005148;28;20076;-62
2023/08/30 15:10:42;;;;;;;3.15;1.70;;;;;;;;;;21004505;28;20052;-62
2023/08/30 15:20:43;;;;;;;3.00;1.30;;;;;;;;;;21003824;28;20049;-62
2023/08/30 15:30:45;;;;;;;2.55;1.55;;;;;;;;;;21002994;28;20558;-62
2023/08/30 15:40:53;;;;;;;2.67;1.02;;;;;;;;;;21002319;28;20052;-62
2023/08/30 15:50:54;;;;;;;4.13;1.52;;;;;;;;;;20999848;28;20060;-61
2023/08/30 16:00:57;;;;;;;3.53;1.40;;;;;;;;;;20999200;28;20040;-61
2023/08/30 16:10:59;;;;;;;2.83;1.40;;;;;;;;;;20997418;28;20045;-62
2023/08/30 16:21:00;;;;;;;3.95;1.30;;;;;;;;;;20998974;28;20097;-63
2023/08/30 16:31:05;;;;;;;2.72;1.70;;;;;;;;;;20998363;28;20098;-61
2023/08/30 16:41:06;;;;;;;5.85;1.85;;;;;;;;;;20998032;28;20518;-62
2023/08/30 16:51:08;;;;;;;5.35;1.40;;;;;;;;;;20995847;28;20048;-61
2023/08/30 17:01:10;;;;;;;3.65;1.75;;;;;;;;;;20996157;28;20048;-62
2023/08/30 17:11:11;;;;;;;4.28;2.60;;;;;;;;;;20995989;28;20047;-61
2023/08/30 17:21:13;;;;;;;3.78;1.90;;;;;;;;;;21007954;28;20124;-61
2023/08/30 17:31:14;;;;;;;16.35;10.32;;;;;;;;;;21011879;28;20052;-61
2023/08/30 17:41:16;;;;;;;7.50;3.92;;;;;;;;;;21011269;28;20606;-61
2023/08/30 17:51:17;;;;;;;6.55;2.72;;;;;;;;;;21010011;28;20052;-61
2023/08/30 18:01:18;;;;;;;5.10;2.42;;;;;;;;;;21009933;28;20044;-62
2023/08/30 18:11:20;;;;;;;5.35;2.50;;;;;;;;;;21009290;28;20389;-62
2023/08/30 18:21:21;;;;;;;10.25;6.50;;;;;;;;;;21008420;28;20044;-62
2023/08/30 18:31:22;;;;;;;3.90;2.17;;;;;;;;;;21006342;28;20085;-61
2023/08/30 18:41:23;;;;;;;5.60;3.22;;;;;;;;;;21006667;28;20050;-62
2023/08/30 18:51:25;;;;;;;3.90;2.10;;;;;;;;;;21004864;28;20056;-62
2023/08/30 19:01:30;;;;;;;3.78;2.35;;;;;;;;;;21004470;28;20048;-62
2023/08/30 19:11:32;;;;;;;3.90;2.38;;;;;;;;;;21004597;28;20491;-61
2023/08/30 19:21:33;;;;;;;9.23;3.92;;;;;;;;;;21003968;28;20438;-62
2023/08/30 19:31:35;;;;;;;6.38;2.45;;;;;;;;;;21002644;28;20235;-62
2023/08/30 19:41:36;;;;;;;4.97;2.00;;;;;;;;;;21001605;28;20048;-62
2023/08/30 19:51:37;;;;;;;5.85;2.10;;;;;;;;;;21000425;28;20044;-63
2023/08/30 20:01:38;;;;;;;5.07;2.30;;;;;;;;;;21000228;28;20040;-62
2023/08/30 20:11:39;;;;;;;5.50;2.08;;;;;;;;;;20999296;28;20402;-61
2023/08/30 20:21:41;;;;;;;2.60;1.77;;;;;;;;;;20999453;28;20418;-62
2023/08/30 20:31:42;;;;;;;2.28;1.52;;;;;;;;;;20999173;28;20425;-62
2023/08/30 20:41:43;;;;;;;5.10;1.65;;;;;;;;;;20998474;28;20440;-62
2023/08/30 20:51:44;;;;;;;2.63;1.80;;;;;;;;;;20996521;28;20053;-62
2023/08/30 21:01:45;;;;;;;3.85;2.03;;;;;;;;;;20997709;28;20045;-62
2023/08/30 21:11:46;;;;;;;2.55;1.60;;;;;;;;;;20997289;28;20509;-61
2023/08/30 21:21:47;;;;;;;4.22;1.90;;;;;;;;;;20995667;28;20139;-63
2023/08/30 21:31:48;;;;;;;3.53;2.08;;;;;;;;;;20994928;28;20090;-62
2023/08/30 21:41:50;;;;;;;3.42;2.40;;;;;;;;;;20994576;28;20127;-63
2023/08/30 21:51:51;;;;;;;3.95;1.80;;;;;;;;;;20993854;28;20064;-61
2023/08/30 22:01:52;;;;;;;2.20;1.30;;;;;;;;;;20996532;28;20072;-63
2023/08/30 22:11:53;;;;;;;7.25;1.40;;;;;;;;;;21009577;28;20474;-62
2023/08/30 22:21:56;;;;;;;3.65;1.45;;;;;;;;;;21009011;28;20045;-62
2023/08/30 22:31:57;;;;;;;3.90;2.50;;;;;;;;;;21008241;28;20127;-61
2023/08/30 22:41:58;;;;;;;4.00;2.47;;;;;;;;;;21007627;28;20149;-61
2023/08/30 22:52:00;;;;;;;2.17;1.52;;;;;;;;;;21005817;28;20128;-62
2023/08/30 23:02:01;;;;;;;2.78;2.08;;;;;;;;;;21004592;28;20048;-62
2023/08/30 23:12:02;;;;;;;2.70;1.20;;;;;;;;;;21003697;28;20452;-62
2023/08/30 23:22:04;;;;;;;4.53;2.70;;;;;;;;;;21004636;28;20486;-62
2023/08/30 23:32:05;;;;;;;3.03;1.83;;;;;;;;;;21003634;28;20047;-62
2023/08/30 23:42:07;;;;;;;2.83;1.70;;;;;;;;;;21002524;28;20618;-62
2023/08/30 23:52:08;;;;;;;4.72;1.75;;;;;;;;;;21000736;28;20052;-62
